sensor_id;sensor_type;location;lat;lon;timestamp;pressure;altitude;pressure_sealevel;temperature;humidity
80851;BME280;70268;50.292;6.666;2023-07-22T00:01:18;96376.09;;;22.80;52.73
80851;BME280;70268;50.292;6.666;2023-07-22T00:03:47;96372.47;;;22.81;52.76
80851;BME280;70268;50.292;6.666;2023-07-22T00:06:15;96368.19;;;22.80;52.78
80851;BME280;70268;50.292;6.666;2023-07-22T00:08:44;96368.00;;;22.82;52.79
80851;BME280;70268;50.292;6.666;2023-07-22T00:11:13;96360.69;;;22.84;52.75
80851;BME280;70268;50.292;6.666;2023-07-22T00:13:42;96359.28;;;22.81;52.72
80851;BME280;70268;50.292;6.666;2023-07-22T00:16:11;96365.13;;;22.77;52.86
80851;BME280;70268;50.292;6.666;2023-07-22T00:18:40;96370.38;;;22.70;53.04
80851;BME280;70268;50.292;6.666;2023-07-22T00:21:08;96360.44;;;22.72;53.02
80851;BME280;70268;50.292;6.666;2023-07-22T00:23:37;96360.84;;;22.69;52.91
80851;BME280;70268;50.292;6.666;2023-07-22T00:26:06;96369.38;;;22.71;52.90
80851;BME280;70268;50.292;6.666;2023-07-22T00:28:37;96378.28;;;22.70;52.97
80851;BME280;70268;50.292;6.666;2023-07-22T00:31:07;96382.97;;;22.68;53.08
80851;BME280;70268;50.292;6.666;2023-07-22T00:33:36;96382.97;;;22.68;53.09
80851;BME280;70268;50.292;6.666;2023-07-22T00:36:04;96380.47;;;22.60;53.13
80851;BME280;70268;50.292;6.666;2023-07-22T00:38:33;96385.75;;;22.60;53.13
80851;BME280;70268;50.292;6.666;2023-07-22T00:41:02;96379.47;;;22.61;53.15
80851;BME280;70268;50.292;6.666;2023-07-22T00:43:32;96386.75;;;22.58;53.24
80851;BME280;70268;50.292;6.666;2023-07-22T00:46:00;96379.66;;;22.59;52.98
80851;BME280;70268;50.292;6.666;2023-07-22T00:48:30;96380.66;;;22.58;53.11
80851;BME280;70268;50.292;6.666;2023-07-22T00:51:00;96380.84;;;22.56;53.03
80851;BME280;70268;50.292;6.666;2023-07-22T00:53:29;96379.44;;;22.54;53.20
80851;BME280;70268;50.292;6.666;2023-07-22T00:55:57;96379.63;;;22.52;53.30
80851;BME280;70268;50.292;6.666;2023-07-22T00:58:26;96374.75;;;22.56;53.16
80851;BME280;70268;50.292;6.666;2023-07-22T01:00:54;96372.72;;;22.51;53.20
80851;BME280;70268;50.292;6.666;2023-07-22T01:03:23;96376.16;;;22.52;53.17
80851;BME280;70268;50.292;6.666;2023-07-22T01:05:54;96374.34;;;22.52;53.09
80851;BME280;70268;50.292;6.666;2023-07-22T01:08:24;96381.63;;;22.50;53.10
80851;BME280;70268;50.292;6.666;2023-07-22T01:10:52;96375.56;;;22.56;53.11
80851;BME280;70268;50.292;6.666;2023-07-22T01:13:21;96366.06;;;22.55;53.19
80851;BME280;70268;50.292;6.666;2023-07-22T01:15:50;96368.44;;;22.50;53.31
80851;BME280;70268;50.292;6.666;2023-07-22T01:18:19;96369.47;;;22.49;53.28
80851;BME280;70268;50.292;6.666;2023-07-22T01:20:47;96366.88;;;22.56;53.12
80851;BME280;70268;50.292;6.666;2023-07-22T01:23:18;96368.25;;;22.52;53.38
80851;BME280;70268;50.292;6.666;2023-07-22T01:25:47;96362.78;;;22.53;53.27
80851;BME280;70268;50.292;6.666;2023-07-22T01:28:15;96363.81;;;22.52;53.26
80851;BME280;70268;50.292;6.666;2023-07-22T01:30:44;96360.53;;;22.50;53.34
80851;BME280;70268;50.292;6.666;2023-07-22T01:33:13;96362.34;;;22.43;53.57
80851;BME280;70268;50.292;6.666;2023-07-22T01:35:41;96361.34;;;22.44;53.38
80851;BME280;70268;50.292;6.666;2023-07-22T01:38:10;96357.31;;;22.48;53.34
80851;BME280;70268;50.292;6.666;2023-07-22T01:40:40;96364.78;;;22.45;53.43
80851;BME280;70268;50.292;6.666;2023-07-22T01:43:08;96360.53;;;22.44;53.31
80851;BME280;70268;50.292;6.666;2023-07-22T01:45:37;96357.91;;;22.44;53.32
80851;BME280;70268;50.292;6.666;2023-07-22T01:48:07;96355.84;;;22.39;53.38
80851;BME280;70268;50.292;6.666;2023-07-22T01:50:35;96363.56;;;22.47;53.23
80851;BME280;70268;50.292;6.666;2023-07-22T01:53:04;96363.56;;;22.40;53.27
80851;BME280;70268;50.292;6.666;2023-07-22T01:55:33;96354.03;;;22.39;53.42
80851;BME280;70268;50.292;6.666;2023-07-22T01:58:03;96356.06;;;22.44;53.42
80851;BME280;70268;50.292;6.666;2023-07-22T02:00:31;96359.69;;;22.43;53.27
80851;BME280;70268;50.292;6.666;2023-07-22T02:03:00;96355.66;;;22.40;53.49
80851;BME280;70268;50.292;6.666;2023-07-22T02:05:29;96361.13;;;22.39;53.55
80851;BME280;70268;50.292;6.666;2023-07-22T02:07:58;96362.13;;;22.38;53.32
80851;BME280;70268;50.292;6.666;2023-07-22T02:10:26;96355.41;;;22.35;53.38
80851;BME280;70268;50.292;6.666;2023-07-22T02:12:55;96354.81;;;22.33;53.40
80851;BME280;70268;50.292;6.666;2023-07-22T02:15:25;96353.56;;;22.29;53.51
80851;BME280;70268;50.292;6.666;2023-07-22T02:17:55;96362.09;;;22.31;53.52
80851;BME280;70268;50.292;6.666;2023-07-22T02:20:23;96347.09;;;22.32;53.77
80851;BME280;70268;50.292;6.666;2023-07-22T02:22:56;96352.97;;;22.34;53.39
80851;BME280;70268;50.292;6.666;2023-07-22T02:25:25;96351.59;;;22.38;53.51
80851;BME280;70268;50.292;6.666;2023-07-22T02:27:53;96341.31;;;22.50;53.75
80851;BME280;70268;50.292;6.666;2023-07-22T02:30:23;96348.56;;;22.48;53.51
80851;BME280;70268;50.292;6.666;2023-07-22T02:32:52;96339.84;;;22.40;53.31
80851;BME280;70268;50.292;6.666;2023-07-22T02:35:21;96348.56;;;22.41;53.41
80851;BME280;70268;50.292;6.666;2023-07-22T02:37:50;96350.34;;;22.34;53.29
80851;BME280;70268;50.292;6.666;2023-07-22T02:40:18;96341.81;;;22.25;53.28
80851;BME280;70268;50.292;6.666;2023-07-22T02:42:47;96343.63;;;22.25;53.21
80851;BME280;70268;50.292;6.666;2023-07-22T02:45:15;96339.56;;;22.22;53.22
80851;BME280;70268;50.292;6.666;2023-07-22T02:47:44;96343.81;;;22.23;53.25
80851;BME280;70268;50.292;6.666;2023-07-22T02:50:14;96342.41;;;22.20;53.33
80851;BME280;70268;50.292;6.666;2023-07-22T02:52:43;96339.75;;;22.20;53.21
80851;BME280;70268;50.292;6.666;2023-07-22T02:55:13;96335.44;;;22.13;53.40
80851;BME280;70268;50.292;6.666;2023-07-22T02:57:42;96338.53;;;22.16;52.97
80851;BME280;70268;50.292;6.666;2023-07-22T03:00:11;96332.81;;;22.13;53.81
80851;BME280;70268;50.292;6.666;2023-07-22T03:02:40;96336.09;;;22.15;53.51
80851;BME280;70268;50.292;6.666;2023-07-22T03:05:09;96342.13;;;22.09;54.22
80851;BME280;70268;50.292;6.666;2023-07-22T03:07:40;96341.50;;;22.07;54.28
80851;BME280;70268;50.292;6.666;2023-07-22T03:10:09;96345.75;;;22.08;54.30
80851;BME280;70268;50.292;6.666;2023-07-22T03:12:38;96339.72;;;22.14;53.86
80851;BME280;70268;50.292;6.666;2023-07-22T03:15:07;96349.19;;;22.08;54.11
80851;BME280;70268;50.292;6.666;2023-07-22T03:17:37;96348.97;;;22.03;54.18
80851;BME280;70268;50.292;6.666;2023-07-22T03:20:06;96347.13;;;22.03;54.05
80851;BME280;70268;50.292;6.666;2023-07-22T03:22:42;96346.34;;;22.03;54.00
80851;BME280;70268;50.292;6.666;2023-07-22T03:25:12;96348.56;;;21.99;54.04
80851;BME280;70268;50.292;6.666;2023-07-22T03:27:41;96343.50;;;22.04;53.87
80851;BME280;70268;50.292;6.666;2023-07-22T03:30:12;96347.72;;;21.99;54.10
80851;BME280;70268;50.292;6.666;2023-07-22T03:32:42;96344.47;;;21.97;53.86
80851;BME280;70268;50.292;6.666;2023-07-22T03:35:11;96351.78;;;21.95;53.94
80851;BME280;70268;50.292;6.666;2023-07-22T03:37:41;96346.72;;;22.00;53.90
80851;BME280;70268;50.292;6.666;2023-07-22T03:40:10;96342.25;;;22.00;53.94
80851;BME280;70268;50.292;6.666;2023-07-22T03:42:41;96346.31;;;21.96;53.96
80851;BME280;70268;50.292;6.666;2023-07-22T03:45:10;96345.44;;;21.89;53.86
80851;BME280;70268;50.292;6.666;2023-07-22T03:47:39;96342.84;;;21.96;53.90
80851;BME280;70268;50.292;6.666;2023-07-22T03:50:08;96342.44;;;21.92;53.90
80851;BME280;70268;50.292;6.666;2023-07-22T03:52:37;96340.59;;;21.93;54.01
80851;BME280;70268;50.292;6.666;2023-07-22T03:55:08;96348.09;;;21.89;53.73
80851;BME280;70268;50.292;6.666;2023-07-22T03:57:38;96349.13;;;21.95;53.76
80851;BME280;70268;50.292;6.666;2023-07-22T04:00:07;96341.19;;;21.88;53.77
80851;BME280;70268;50.292;6.666;2023-07-22T04:02:41;96348.09;;;21.89;53.79
80851;BME280;70268;50.292;6.666;2023-07-22T04:05:10;96345.00;;;21.85;53.97
80851;BME280;70268;50.292;6.666;2023-07-22T04:07:39;96349.66;;;21.83;53.76
80851;BME280;70268;50.292;6.666;2023-07-22T04:10:09;96357.31;;;21.78;53.98
80851;BME280;70268;50.292;6.666;2023-07-22T04:12:37;96349.63;;;21.77;53.90
80851;BME280;70268;50.292;6.666;2023-07-22T04:15:09;96353.09;;;21.84;53.49
80851;BME280;70268;50.292;6.666;2023-07-22T04:17:39;96352.06;;;21.78;53.79
80851;BME280;70268;50.292;6.666;2023-07-22T04:20:08;96349.84;;;21.82;53.65
80851;BME280;70268;50.292;6.666;2023-07-22T04:22:37;96339.31;;;21.82;53.52
80851;BME280;70268;50.292;6.666;2023-07-22T04:25:07;96342.53;;;21.77;53.81
80851;BME280;70268;50.292;6.666;2023-07-22T04:27:37;96344.34;;;21.77;53.56
80851;BME280;70268;50.292;6.666;2023-07-22T04:30:07;96343.78;;;21.81;53.44
80851;BME280;70268;50.292;6.666;2023-07-22T04:32:36;96338.72;;;21.80;53.55
80851;BME280;70268;50.292;6.666;2023-07-22T04:35:07;96342.88;;;21.74;53.67
80851;BME280;70268;50.292;6.666;2023-07-22T04:37:37;96347.19;;;21.75;53.41
80851;BME280;70268;50.292;6.666;2023-07-22T04:40:06;96350.16;;;21.72;53.38
80851;BME280;70268;50.292;6.666;2023-07-22T04:42:42;96351.88;;;21.80;53.52
80851;BME280;70268;50.292;6.666;2023-07-22T04:45:11;96349.63;;;21.77;53.25
80851;BME280;70268;50.292;6.666;2023-07-22T04:47:41;96347.78;;;21.77;53.28
80851;BME280;70268;50.292;6.666;2023-07-22T04:50:11;96351.69;;;21.81;53.26
80851;BME280;70268;50.292;6.666;2023-07-22T04:52:42;96343.34;;;21.78;53.48
80851;BME280;70268;50.292;6.666;2023-07-22T04:55:11;96345.16;;;21.77;53.54
80851;BME280;70268;50.292;6.666;2023-07-22T04:57:41;96350.84;;;21.81;53.13
80851;BME280;70268;50.292;6.666;2023-07-22T05:00:12;96351.50;;;21.83;53.00
80851;BME280;70268;50.292;6.666;2023-07-22T05:02:43;96345.19;;;21.84;53.04
80851;BME280;70268;50.292;6.666;2023-07-22T05:05:12;96348.84;;;21.83;53.13
80851;BME280;70268;50.292;6.666;2023-07-22T05:07:41;96351.69;;;21.81;53.03
80851;BME280;70268;50.292;6.666;2023-07-22T05:10:10;96349.06;;;21.81;52.78
80851;BME280;70268;50.292;6.666;2023-07-22T05:12:42;96350.72;;;21.89;52.78
80851;BME280;70268;50.292;6.666;2023-07-22T05:15:12;96345.25;;;21.91;52.85
80851;BME280;70268;50.292;6.666;2023-07-22T05:17:41;96345.44;;;21.89;52.63
80851;BME280;70268;50.292;6.666;2023-07-22T05:20:10;96344.38;;;21.83;52.91
80851;BME280;70268;50.292;6.666;2023-07-22T05:22:40;96345.88;;;21.93;52.50
80851;BME280;70268;50.292;6.666;2023-07-22T05:25:09;96343.88;;;21.95;52.50
80851;BME280;70268;50.292;6.666;2023-07-22T05:27:39;96338.16;;;21.91;52.43
80851;BME280;70268;50.292;6.666;2023-07-22T05:30:09;96344.28;;;21.98;52.43
80851;BME280;70268;50.292;6.666;2023-07-22T05:32:55;96344.06;;;21.93;52.57
80851;BME280;70268;50.292;6.666;2023-07-22T05:35:23;96349.94;;;21.95;52.63
80851;BME280;70268;50.292;6.666;2023-07-22T05:37:52;96351.78;;;21.95;52.53
80851;BME280;70268;50.292;6.666;2023-07-22T05:40:20;96349.13;;;21.95;52.72
80851;BME280;70268;50.292;6.666;2023-07-22T05:42:49;96336.78;;;21.95;52.62
80851;BME280;70268;50.292;6.666;2023-07-22T05:45:19;96347.13;;;21.97;52.64
80851;BME280;70268;50.292;6.666;2023-07-22T05:47:48;96348.56;;;21.99;52.63
80851;BME280;70268;50.292;6.666;2023-07-22T05:50:16;96340.28;;;22.02;52.70
80851;BME280;70268;50.292;6.666;2023-07-22T05:52:45;96351.38;;;21.98;52.73
80851;BME280;70268;50.292;6.666;2023-07-22T05:55:15;96344.69;;;22.02;52.56
80851;BME280;70268;50.292;6.666;2023-07-22T05:57:43;96347.97;;;22.04;52.56
80851;BME280;70268;50.292;6.666;2023-07-22T06:00:13;96351.03;;;22.08;52.47
80851;BME280;70268;50.292;6.666;2023-07-22T06:02:43;96350.41;;;22.06;52.67
80851;BME280;70268;50.292;6.666;2023-07-22T06:05:11;96350.03;;;22.09;52.57
80851;BME280;70268;50.292;6.666;2023-07-22T06:07:40;96350.03;;;22.09;52.22
80851;BME280;70268;50.292;6.666;2023-07-22T06:10:09;96350.81;;;22.09;52.50
80851;BME280;70268;50.292;6.666;2023-07-22T06:12:38;96346.38;;;22.10;52.42
80851;BME280;70268;50.292;6.666;2023-07-22T06:15:09;96345.97;;;22.13;52.57
80851;BME280;70268;50.292;6.666;2023-07-22T06:17:38;96350.25;;;22.14;52.43
80851;BME280;70268;50.292;6.666;2023-07-22T06:20:09;96351.03;;;22.14;52.27
80851;BME280;70268;50.292;6.666;2023-07-22T06:22:38;96345.78;;;22.14;52.57
80851;BME280;70268;50.292;6.666;2023-07-22T06:25:08;96344.19;;;22.13;52.55
80851;BME280;70268;50.292;6.666;2023-07-22T06:27:37;96350.84;;;22.16;52.31
80851;BME280;70268;50.292;6.666;2023-07-22T06:30:07;96348.41;;;22.14;52.45
80851;BME280;70268;50.292;6.666;2023-07-22T06:32:37;96352.88;;;22.14;52.42
80851;BME280;70268;50.292;6.666;2023-07-22T06:35:07;96346.81;;;22.13;52.52
80851;BME280;70268;50.292;6.666;2023-07-22T06:37:36;96349.84;;;22.17;52.44
80851;BME280;70268;50.292;6.666;2023-07-22T06:40:06;96351.09;;;22.21;52.34
80851;BME280;70268;50.292;6.666;2023-07-22T06:42:34;96350.28;;;22.20;52.26
80851;BME280;70268;50.292;6.666;2023-07-22T06:45:04;96343.81;;;22.23;52.37
80851;BME280;70268;50.292;6.666;2023-07-22T06:47:33;96349.47;;;22.20;52.45
80851;BME280;70268;50.292;6.666;2023-07-22T06:50:02;96345.63;;;22.22;52.20
80851;BME280;70268;50.292;6.666;2023-07-22T06:52:33;96344.84;;;22.22;52.35
80851;BME280;70268;50.292;6.666;2023-07-22T06:55:02;96343.81;;;22.23;52.20
80851;BME280;70268;50.292;6.666;2023-07-22T06:57:30;96340.38;;;22.22;52.22
80851;BME280;70268;50.292;6.666;2023-07-22T06:59:59;96340.97;;;22.25;52.17
80851;BME280;70268;50.292;6.666;2023-07-22T07:02:28;96342.63;;;22.26;52.23
80851;BME280;70268;50.292;6.666;2023-07-22T07:04:56;96349.31;;;22.28;51.86
80851;BME280;70268;50.292;6.666;2023-07-22T07:07:25;96352.56;;;22.30;52.09
80851;BME280;70268;50.292;6.666;2023-07-22T07:09:55;96352.38;;;22.32;52.18
80851;BME280;70268;50.292;6.666;2023-07-22T07:12:24;96349.94;;;22.30;51.94
80851;BME280;70268;50.292;6.666;2023-07-22T07:14:52;96353.81;;;22.34;52.31
80851;BME280;70268;50.292;6.666;2023-07-22T07:17:21;96346.91;;;22.33;51.87
80851;BME280;70268;50.292;6.666;2023-07-22T07:19:50;96345.72;;;22.36;51.86
80851;BME280;70268;50.292;6.666;2023-07-22T07:22:18;96350.78;;;22.37;51.96
80851;BME280;70268;50.292;6.666;2023-07-22T07:24:47;96350.97;;;22.36;51.76
80851;BME280;70268;50.292;6.666;2023-07-22T07:27:17;96350.16;;;22.35;51.93
80851;BME280;70268;50.292;6.666;2023-07-22T07:29:45;96349.75;;;22.38;51.79
80851;BME280;70268;50.292;6.666;2023-07-22T07:32:21;96344.47;;;22.38;51.71
80851;BME280;70268;50.292;6.666;2023-07-22T07:34:51;96344.47;;;22.38;51.78
80851;BME280;70268;50.292;6.666;2023-07-22T07:37:20;96347.13;;;22.38;51.69
80851;BME280;70268;50.292;6.666;2023-07-22T07:39:50;96344.72;;;22.44;51.74
80851;BME280;70268;50.292;6.666;2023-07-22T07:42:20;96350.00;;;22.44;51.58
80851;BME280;70268;50.292;6.666;2023-07-22T07:44:49;96342.69;;;22.39;51.72
80851;BME280;70268;50.292;6.666;2023-07-22T07:47:17;96350.00;;;22.44;51.69
80851;BME280;70268;50.292;6.666;2023-07-22T07:49:46;96344.91;;;22.42;51.68
80851;BME280;70268;50.292;6.666;2023-07-22T07:52:15;96344.53;;;22.45;51.62
80851;BME280;70268;50.292;6.666;2023-07-22T07:54:43;96353.22;;;22.46;51.57
80851;BME280;70268;50.292;6.666;2023-07-22T07:57:12;96352.00;;;22.42;51.58
80851;BME280;70268;50.292;6.666;2023-07-22T07:59:42;96348.16;;;22.44;51.47
80851;BME280;70268;50.292;6.666;2023-07-22T08:02:10;96341.50;;;22.48;51.52
80851;BME280;70268;50.292;6.666;2023-07-22T08:04:39;96346.56;;;22.50;51.40
80851;BME280;70268;50.292;6.666;2023-07-22T08:07:09;96349.34;;;22.42;51.28
80851;BME280;70268;50.292;6.666;2023-07-22T08:09:37;96344.13;;;22.48;51.35
80851;BME280;70268;50.292;6.666;2023-07-22T08:12:06;96339.66;;;22.49;51.19
80851;BME280;70268;50.292;6.666;2023-07-22T08:14:35;96343.09;;;22.43;51.52
80851;BME280;70268;50.292;6.666;2023-07-22T08:17:06;96349.16;;;22.43;51.50
80851;BME280;70268;50.292;6.666;2023-07-22T08:19:34;96340.88;;;22.46;51.50
80851;BME280;70268;50.292;6.666;2023-07-22T08:22:03;96340.31;;;22.51;51.23
80851;BME280;70268;50.292;6.666;2023-07-22T08:24:32;96338.28;;;22.53;51.13
80851;BME280;70268;50.292;6.666;2023-07-22T08:27:01;96346.97;;;22.53;51.07
80851;BME280;70268;50.292;6.666;2023-07-22T08:29:29;96344.97;;;22.55;51.14
80851;BME280;70268;50.292;6.666;2023-07-22T08:31:58;96348.81;;;22.53;51.13
80851;BME280;70268;50.292;6.666;2023-07-22T08:34:28;96349.41;;;22.55;51.14
80851;BME280;70268;50.292;6.666;2023-07-22T08:36:57;96347.41;;;22.57;51.13
80851;BME280;70268;50.292;6.666;2023-07-22T08:39:25;96350.97;;;22.36;50.88
80851;BME280;70268;50.292;6.666;2023-07-22T08:41:54;96360.13;;;22.47;51.07
80851;BME280;70268;50.292;6.666;2023-07-22T08:44:25;96357.06;;;22.43;51.52
80851;BME280;70268;50.292;6.666;2023-07-22T08:46:58;96347.94;;;22.39;50.98
80851;BME280;70268;50.292;6.666;2023-07-22T08:49:29;96344.72;;;22.44;51.40
80851;BME280;70268;50.292;6.666;2023-07-22T08:51:59;96345.53;;;22.44;51.26
80851;BME280;70268;50.292;6.666;2023-07-22T08:54:28;96342.28;;;22.42;51.52
80851;BME280;70268;50.292;6.666;2023-07-22T08:56:58;96336.00;;;22.43;51.50
80851;BME280;70268;50.292;6.666;2023-07-22T08:59:26;96334.00;;;22.45;51.17
80851;BME280;70268;50.292;6.666;2023-07-22T09:01:55;96351.56;;;22.31;50.79
80851;BME280;70268;50.292;6.666;2023-07-22T09:04:25;96345.72;;;22.43;51.37
80851;BME280;70268;50.292;6.666;2023-07-22T09:06:55;96347.94;;;22.39;51.48
80851;BME280;70268;50.292;6.666;2023-07-22T09:09:24;96357.25;;;22.42;51.17
80851;BME280;70268;50.292;6.666;2023-07-22T09:11:53;96350.97;;;22.36;51.30
80851;BME280;70268;50.292;6.666;2023-07-22T09:14:23;96345.72;;;22.36;51.36
80851;BME280;70268;50.292;6.666;2023-07-22T09:17:04;96348.34;;;22.36;51.35
80851;BME280;70268;50.292;6.666;2023-07-22T09:19:33;96349.34;;;22.35;51.38
80851;BME280;70268;50.292;6.666;2023-07-22T09:22:03;96345.31;;;22.39;51.37
80851;BME280;70268;50.292;6.666;2023-07-22T09:24:32;96347.31;;;22.37;51.24
80851;BME280;70268;50.292;6.666;2023-07-22T09:27:00;96351.59;;;22.38;51.29
80851;BME280;70268;50.292;6.666;2023-07-22T09:29:32;96357.44;;;22.33;51.37
80851;BME280;70268;50.292;6.666;2023-07-22T09:32:01;96344.84;;;22.22;51.00
80851;BME280;70268;50.292;6.666;2023-07-22T09:34:30;96351.50;;;22.25;51.58
80851;BME280;70268;50.292;6.666;2023-07-22T09:37:00;96347.28;;;22.24;51.54
80851;BME280;70268;50.292;6.666;2023-07-22T09:39:30;96343.41;;;22.26;51.55
80851;BME280;70268;50.292;6.666;2023-07-22T09:41:58;96345.06;;;22.27;51.50
80851;BME280;70268;50.292;6.666;2023-07-22T09:44:30;96347.09;;;22.32;51.26
80851;BME280;70268;50.292;6.666;2023-07-22T09:47:05;96344.69;;;22.37;51.22
80851;BME280;70268;50.292;6.666;2023-07-22T09:49:40;96346.31;;;22.38;51.18
80851;BME280;70268;50.292;6.666;2023-07-22T09:52:10;96344.28;;;22.40;51.22
80851;BME280;70268;50.292;6.666;2023-07-22T09:54:48;96340.66;;;22.41;51.15
80851;BME280;70268;50.292;6.666;2023-07-22T09:57:18;96335.19;;;22.43;51.07
80851;BME280;70268;50.292;6.666;2023-07-22T09:59:48;96340.66;;;22.41;51.17
80851;BME280;70268;50.292;6.666;2023-07-22T10:02:18;96330.53;;;22.45;50.99
80851;BME280;70268;50.292;6.666;2023-07-22T10:04:48;96327.09;;;22.44;50.87
80851;BME280;70268;50.292;6.666;2023-07-22T10:07:20;96336.81;;;22.44;50.32
80851;BME280;70268;50.292;6.666;2023-07-22T10:09:54;96346.72;;;22.42;50.33
80851;BME280;70268;50.292;6.666;2023-07-22T10:12:24;96340.47;;;22.43;50.90
80851;BME280;70268;50.292;6.666;2023-07-22T10:14:53;96339.84;;;22.40;50.93
80851;BME280;70268;50.292;6.666;2023-07-22T10:17:21;96333.16;;;22.38;50.90
80851;BME280;70268;50.292;6.666;2023-07-22T10:19:51;96337.41;;;22.39;50.90
80851;BME280;70268;50.292;6.666;2023-07-22T10:22:20;96325.44;;;22.36;50.71
80851;BME280;70268;50.292;6.666;2023-07-22T10:24:51;96340.84;;;22.33;50.52
80851;BME280;70268;50.292;6.666;2023-07-22T10:27:21;96338.19;;;22.33;51.04
80851;BME280;70268;50.292;6.666;2023-07-22T10:29:51;96328.66;;;22.32;51.15
80851;BME280;70268;50.292;6.666;2023-07-22T10:32:19;96325.63;;;22.28;51.12
80851;BME280;70268;50.292;6.666;2023-07-22T10:34:48;96332.28;;;22.31;50.90
80851;BME280;70268;50.292;6.666;2023-07-22T10:37:17;96332.69;;;22.28;51.22
80851;BME280;70268;50.292;6.666;2023-07-22T10:39:46;96329.63;;;22.24;50.92
80851;BME280;70268;50.292;6.666;2023-07-22T10:42:25;96319.50;;;22.28;50.85
80851;BME280;70268;50.292;6.666;2023-07-22T10:44:53;96317.13;;;22.33;50.90
80851;BME280;70268;50.292;6.666;2023-07-22T10:47:31;96313.66;;;22.32;50.88
80851;BME280;70268;50.292;6.666;2023-07-22T10:50:07;96315.69;;;22.37;50.21
80851;BME280;70268;50.292;6.666;2023-07-22T10:52:42;96304.16;;;22.38;50.70
80851;BME280;70268;50.292;6.666;2023-07-22T10:55:18;96304.16;;;22.38;50.70
80851;BME280;70268;50.292;6.666;2023-07-22T10:57:50;96311.28;;;22.37;50.74
80851;BME280;70268;50.292;6.666;2023-07-22T11:00:20;96299.09;;;22.36;50.73
80851;BME280;70268;50.292;6.666;2023-07-22T11:03:11;96298.91;;;22.38;50.86
80851;BME280;70268;50.292;6.666;2023-07-22T11:05:48;96296.25;;;22.38;50.87
80851;BME280;70268;50.292;6.666;2023-07-22T11:08:35;96298.91;;;22.38;50.44
80851;BME280;70268;50.292;6.666;2023-07-22T11:11:04;96303.16;;;22.39;50.62
80851;BME280;70268;50.292;6.666;2023-07-22T11:13:37;96296.06;;;22.39;50.65
80851;BME280;70268;50.292;6.666;2023-07-22T11:16:10;96307.41;;;22.40;49.64
80851;BME280;70268;50.292;6.666;2023-07-22T11:18:40;96304.78;;;22.40;50.35
80851;BME280;70268;50.292;6.666;2023-07-22T11:21:10;96293.22;;;22.41;49.55
80851;BME280;70268;50.292;6.666;2023-07-22T11:23:39;96297.06;;;22.38;50.43
80851;BME280;70268;50.292;6.666;2023-07-22T11:26:07;96300.53;;;22.39;50.44
80851;BME280;70268;50.292;6.666;2023-07-22T11:28:37;96287.38;;;22.39;50.13
80851;BME280;70268;50.292;6.666;2023-07-22T11:31:05;96291.59;;;22.40;50.24
80851;BME280;70268;50.292;6.666;2023-07-22T11:33:38;96287.97;;;22.41;50.02
80851;BME280;70268;50.292;6.666;2023-07-22T11:36:07;96279.06;;;22.42;50.17
80851;BME280;70268;50.292;6.666;2023-07-22T11:38:35;96283.50;;;22.42;50.17
80851;BME280;70268;50.292;6.666;2023-07-22T11:41:05;96289.59;;;22.42;50.21
80851;BME280;70268;50.292;6.666;2023-07-22T11:43:33;96286.97;;;22.42;50.18
80851;BME280;70268;50.292;6.666;2023-07-22T11:46:06;96292.03;;;22.44;49.85
80851;BME280;70268;50.292;6.666;2023-07-22T11:48:34;96285.34;;;22.41;50.10
80851;BME280;70268;50.292;6.666;2023-07-22T11:51:03;96285.94;;;22.43;49.92
80851;BME280;70268;50.292;6.666;2023-07-22T11:53:33;96283.09;;;22.45;49.95
80851;BME280;70268;50.292;6.666;2023-07-22T11:56:02;96276.63;;;22.47;50.03
80851;BME280;70268;50.292;6.666;2023-07-22T11:58:32;96277.63;;;22.46;50.08
80851;BME280;70268;50.292;6.666;2023-07-22T12:01:03;96288.81;;;22.48;49.68
80851;BME280;70268;50.292;6.666;2023-07-22T12:03:34;96274.63;;;22.49;49.76
80851;BME280;70268;50.292;6.666;2023-07-22T12:06:03;96270.16;;;22.50;49.81
80851;BME280;70268;50.292;6.666;2023-07-22T12:08:34;96278.69;;;22.52;49.62
80851;BME280;70268;50.292;6.666;2023-07-22T12:11:03;96266.34;;;22.52;49.61
80851;BME280;70268;50.292;6.666;2023-07-22T12:13:36;96268.34;;;22.50;49.76
80851;BME280;70268;50.292;6.666;2023-07-22T12:16:05;96264.69;;;22.51;49.74
80851;BME280;70268;50.292;6.666;2023-07-22T12:18:45;96264.31;;;22.54;49.51
80851;BME280;70268;50.292;6.666;2023-07-22T12:21:14;96267.94;;;22.53;49.65
80851;BME280;70268;50.292;6.666;2023-07-22T12:23:43;96267.94;;;22.53;49.47
80851;BME280;70268;50.292;6.666;2023-07-22T12:26:11;96253.16;;;22.52;49.53
80851;BME280;70268;50.292;6.666;2023-07-22T12:28:40;96259.22;;;22.53;49.50
80851;BME280;70268;50.292;6.666;2023-07-22T12:31:08;96257.19;;;22.55;49.49
80851;BME280;70268;50.292;6.666;2023-07-22T12:33:37;96264.91;;;22.56;49.28
80851;BME280;70268;50.292;6.666;2023-07-22T12:36:08;96263.09;;;22.57;49.00
80851;BME280;70268;50.292;6.666;2023-07-22T12:38:36;96260.47;;;22.57;49.21
80851;BME280;70268;50.292;6.666;2023-07-22T12:41:05;96247.91;;;22.59;48.84
80851;BME280;70268;50.292;6.666;2023-07-22T12:43:33;96248.09;;;22.57;48.82
80851;BME280;70268;50.292;6.666;2023-07-22T12:46:02;96253.34;;;22.57;48.94
80851;BME280;70268;50.292;6.666;2023-07-22T12:48:30;96245.47;;;22.57;49.01
80851;BME280;70268;50.292;6.666;2023-07-22T12:50:59;96252.38;;;22.58;48.60
80851;BME280;70268;50.292;6.666;2023-07-22T12:53:30;96251.53;;;22.58;48.89
80851;BME280;70268;50.292;6.666;2023-07-22T12:55:59;96251.53;;;22.58;48.96
80851;BME280;70268;50.292;6.666;2023-07-22T12:58:29;96255.78;;;22.59;48.84
80851;BME280;70268;50.292;6.666;2023-07-22T13:00:58;96246.09;;;22.60;48.86
80851;BME280;70268;50.292;6.666;2023-07-22T13:03:27;96256.81;;;22.58;48.72
80851;BME280;70268;50.292;6.666;2023-07-22T13:05:56;96243.47;;;22.60;48.84
80851;BME280;70268;50.292;6.666;2023-07-22T13:08:24;96245.25;;;22.59;48.77
80851;BME280;70268;50.292;6.666;2023-07-22T13:10:54;96242.63;;;22.59;48.87
80851;BME280;70268;50.292;6.666;2023-07-22T13:13:23;96240.81;;;22.60;48.63